Time;durP1;ratioP1;P1;durP2;ratioP2;P2;SDS_P1;SDS_P2;PMS_P1;PMS_P2;Temp;Humidity;BMP_temperature;BMP_pressure;BME280_temperature;BME280_humidity;BME280_pressure;Samples;Min_cycle;Max_cycle;Signal;HPM_P1;HPM_P2
2021/06/05 00:00:50;;;;;;;7.70;5.32;;;;;;;16.81;62.30;100943.09;5056409;28;20419;-62
2021/06/05 00:03:16;;;;;;;8.07;4.95;;;;;;;16.74;62.58;100942.44;5059302;28;20056;-61
2021/06/05 00:05:45;;;;;;;6.15;4.90;;;;;;;16.65;62.53;100940.09;5059067;28;20110;-61
2021/06/05 00:08:11;;;;;;;7.88;4.75;;;;;;;16.56;62.74;100948.38;5059025;28;20078;-61
2021/06/05 00:10:41;;;;;;;9.40;4.70;;;;;;;16.49;62.86;100939.97;5059093;28;20021;-61
2021/06/05 00:13:10;;;;;;;6.45;4.82;;;;;;;16.41;63.12;100938.47;5059111;28;20025;-61
2021/06/05 00:15:40;;;;;;;8.75;4.97;;;;;;;16.33;63.20;100935.75;5058985;28;20087;-61
2021/06/05 00:18:05;;;;;;;5.75;4.93;;;;;;;16.27;63.27;100939.50;5059037;28;20013;-61
2021/06/05 00:20:33;;;;;;;7.25;5.13;;;;;;;16.21;63.71;100933.53;5053672;28;20026;-61
2021/06/05 00:23:00;;;;;;;9.07;5.13;;;;;;;16.20;63.96;100936.78;5073491;28;20024;-61
2021/06/05 00:25:28;;;;;;;13.30;6.35;;;;;;;16.15;64.07;100938.03;5078741;28;20036;-61
2021/06/05 00:27:53;;;;;;;12.77;5.70;;;;;;;16.10;63.84;100940.56;5078840;28;20418;-61
2021/06/05 00:30:19;;;;;;;10.38;5.70;;;;;;;16.04;64.36;100940.25;5078545;28;20024;-61
2021/06/05 00:32:45;;;;;;;8.98;5.97;;;;;;;16.00;64.05;100945.19;5078768;28;20028;-61
2021/06/05 00:35:11;;;;;;;12.15;6.68;;;;;;;15.98;64.13;100947.63;5078338;28;20065;-61
2021/06/05 00:37:37;;;;;;;9.65;5.15;;;;;;;15.94;63.63;100949.72;5078502;28;20109;-61
2021/06/05 00:40:04;;;;;;;11.55;4.78;;;;;;;15.91;63.75;100947.75;5078476;28;20391;-61
2021/06/05 00:42:29;;;;;;;10.20;5.15;;;;;;;15.89;63.22;100945.34;5077557;28;20051;-61
2021/06/05 00:44:55;;;;;;;7.47;4.95;;;;;;;15.85;63.71;100930.38;5078303;28;20416;-61
2021/06/05 00:47:20;;;;;;;9.43;5.53;;;;;;;15.83;63.73;100932.84;5078746;28;20048;-61
2021/06/05 00:49:46;;;;;;;7.28;4.90;;;;;;;15.82;63.88;100936.09;5078116;28;20017;-61
2021/06/05 00:52:14;;;;;;;10.15;5.10;;;;;;;15.80;63.50;100932.91;5078285;28;20025;-61
2021/06/05 00:54:40;;;;;;;9.68;5.47;;;;;;;15.76;63.50;100928.06;5078377;28;20107;-61
2021/06/05 00:57:06;;;;;;;8.23;5.10;;;;;;;15.74;63.15;100930.53;5078538;28;20095;-65
2021/06/05 00:59:33;;;;;;;6.13;4.60;;;;;;;15.71;63.09;100925.72;5078281;28;20035;-61
2021/06/05 01:01:58;;;;;;;7.85;5.10;;;;;;;15.69;62.95;100925.34;5078483;28;20032;-61
2021/06/05 01:04:24;;;;;;;5.85;4.60;;;;;;;15.68;62.88;100918.06;5077928;28;20024;-61
2021/06/05 01:07:20;;;;;;;6.90;4.85;;;;;;;15.68;62.89;100918.06;5078054;28;20044;-60
2021/06/05 01:09:59;;;;;;;10.25;5.95;;;;;;;15.66;62.85;100917.69;5078118;28;20312;-63
2021/06/05 01:12:34;;;;;;;5.78;5.15;;;;;;;15.64;62.82;100911.66;5076335;28;20048;-62
2021/06/05 01:15:26;;;;;;;6.57;5.07;;;;;;;15.60;63.38;100910.88;5078380;28;20020;-63
2021/06/05 01:17:57;;;;;;;8.40;5.25;;;;;;;15.57;62.89;100908.88;5077849;28;20024;-61
2021/06/05 01:20:45;;;;;;;6.20;4.68;;;;;;;15.56;63.20;100909.28;5077726;28;20078;-63
2021/06/05 01:23:22;;;;;;;6.90;4.85;;;;;;;15.62;63.20;100913.31;5076033;28;20037;-64
2021/06/05 01:26:01;;;;;;;8.90;5.50;;;;;;;15.80;63.04;100913.06;5077723;28;20052;-64
2021/06/05 01:28:32;;;;;;;9.07;5.18;;;;;;;15.87;62.87;100907.28;5077882;28;20024;-65
2021/06/05 01:31:01;;;;;;;11.00;5.70;;;;;;;15.83;62.67;100912.19;5077548;28;20016;-66
2021/06/05 01:33:29;;;;;;;9.25;5.55;;;;;;;15.81;63.31;100909.78;5077248;28;20040;-65
2021/06/05 01:35:54;;;;;;;7.88;5.10;;;;;;;15.88;62.88;100911.72;5077515;28;20035;-63
2021/06/05 01:38:23;;;;;;;6.72;5.10;;;;;;;15.83;62.67;100912.19;5077454;28;20120;-64
2021/06/05 01:40:50;;;;;;;7.38;5.28;;;;;;;15.70;63.21;100904.28;5077237;28;20044;-66
2021/06/05 01:43:20;;;;;;;6.53;5.10;;;;;;;15.57;63.86;100905.22;5077489;28;20020;-64
2021/06/05 01:45:46;;;;;;;8.48;5.72;;;;;;;15.44;64.17;100902.16;5077301;28;20024;-63
2021/06/05 01:48:13;;;;;;;9.43;5.68;;;;;;;15.31;64.98;100899.06;5076784;28;20052;-63
2021/06/05 01:50:45;;;;;;;11.57;5.40;;;;;;;15.21;65.50;100904.88;5076399;28;20028;-63
2021/06/05 01:53:23;;;;;;;8.07;5.00;;;;;;;15.10;65.52;100894.47;5077000;28;20016;-63
2021/06/05 01:56:22;;;;;;;6.97;5.43;;;;;;;15.02;65.77;100897.78;5077340;28;20090;-63
2021/06/05 01:58:50;;;;;;;7.20;5.22;;;;;;;14.96;66.05;100897.44;5069445;28;20032;-62
2021/06/05 02:01:15;;;;;;;8.00;5.32;;;;;;;14.89;65.97;100889.03;5076709;28;20016;-64
2021/06/05 02:03:42;;;;;;;7.22;5.18;;;;;;;14.84;66.22;100883.84;5077387;28;20073;-65
2021/06/05 02:06:07;;;;;;;7.75;5.43;;;;;;;14.79;66.20;100885.13;5076830;28;20431;-63
2021/06/05 02:08:33;;;;;;;9.82;5.57;;;;;;;14.76;65.99;100888.75;5077147;28;20024;-63
2021/06/05 02:11:12;;;;;;;11.15;5.47;;;;;;;14.72;66.81;100879.50;5076976;28;20416;-65
2021/06/05 02:13:52;;;;;;;9.20;5.90;;;;;;;14.67;67.09;100879.97;5075791;28;20020;-66
2021/06/05 02:16:29;;;;;;;11.40;5.80;;;;;;;14.62;67.31;100873.97;5076574;28;20039;-64
2021/06/05 02:19:05;;;;;;;7.32;4.82;;;;;;;14.56;67.01;100867.16;5076926;28;20032;-63
2021/06/05 02:21:33;;;;;;;7.03;5.43;;;;;;;14.49;67.45;100865.97;5076720;28;20028;-64
2021/06/05 02:24:10;;;;;;;10.93;5.20;;;;;;;14.45;67.71;100858.75;5076363;28;20039;-63
2021/06/05 02:26:39;;;;;;;9.00;5.60;;;;;;;14.40;67.90;100859.97;5076689;28;20021;-63
2021/06/05 02:29:08;;;;;;;8.27;5.15;;;;;;;14.37;67.88;100863.66;5075123;28;20021;-63
2021/06/05 02:31:33;;;;;;;10.48;5.00;;;;;;;14.34;68.26;100852.38;5076548;28;20099;-65
2021/06/05 02:34:03;;;;;;;5.95;5.35;;;;;;;14.30;68.56;100860.88;5076348;28;20056;-63
2021/06/05 02:36:28;;;;;;;4.88;4.38;;;;;;;14.25;68.40;100861.34;5076235;28;20032;-63
2021/06/05 02:38:53;;;;;;;6.57;5.43;;;;;;;14.22;68.37;100865.78;5076410;28;20043;-63
2021/06/05 02:41:22;;;;;;;8.18;5.28;;;;;;;14.19;68.20;100854.50;5076052;28;20095;-63
2021/06/05 02:43:56;;;;;;;6.70;4.45;;;;;;;14.14;68.50;100855.75;5076264;28;20032;-62
2021/06/05 02:46:25;;;;;;;6.55;4.93;;;;;;;14.12;68.59;100858.19;5076346;28;20074;-63
2021/06/05 02:48:59;;;;;;;9.20;5.28;;;;;;;14.11;68.38;100850.13;5076487;28;20020;-64
2021/06/05 02:51:29;;;;;;;10.07;5.47;;;;;;;14.09;68.79;100855.41;5075948;28;20031;-66
2021/06/05 02:53:54;;;;;;;8.95;5.07;;;;;;;14.05;68.16;100851.81;5076220;28;20028;-63
2021/06/05 02:56:20;;;;;;;5.50;4.90;;;;;;;14.03;68.48;100849.38;5076027;28;20027;-65
2021/06/05 02:58:46;;;;;;;7.70;5.15;;;;;;;14.00;68.70;100843.78;5076136;28;20024;-63
2021/06/05 03:01:13;;;;;;;6.53;5.20;;;;;;;13.98;68.62;100835.72;5076102;28;20312;-63
2021/06/05 03:03:38;;;;;;;10.35;4.90;;;;;;;13.93;69.18;100839.75;5075983;28;20032;-63
2021/06/05 03:06:05;;;;;;;5.95;5.20;;;;;;;13.91;69.13;100845.00;5076324;28;20426;-65
2021/06/05 03:08:37;;;;;;;6.80;5.45;;;;;;;13.88;68.67;100843.03;5075699;28;20408;-63
2021/06/05 03:11:05;;;;;;;5.70;5.15;;;;;;;13.85;68.80;100832.56;5075906;28;20039;-63
2021/06/05 03:13:30;;;;;;;7.53;4.80;;;;;;;13.82;69.39;100824.91;5075329;28;20054;-64
2021/06/05 03:15:56;;;;;;;8.75;5.15;;;;;;;13.80;69.78;100818.88;5074943;28;20024;-64
2021/06/05 03:18:23;;;;;;;14.07;5.18;;;;;;;13.79;70.34;100822.91;5075483;28;20021;-64
2021/06/05 03:20:50;;;;;;;6.13;5.18;;;;;;;13.78;69.59;100831.81;5075538;28;20374;-62
2021/06/05 03:23:19;;;;;;;9.00;4.93;;;;;;;13.77;69.26;100822.53;5075685;28;20020;-64
2021/06/05 03:25:46;;;;;;;6.70;4.80;;;;;;;13.76;69.46;100823.75;5074802;28;20031;-64
2021/06/05 03:28:13;;;;;;;11.35;5.53;;;;;;;13.76;68.85;100820.13;5075113;28;20027;-63
2021/06/05 03:30:39;;;;;;;8.38;5.03;;;;;;;13.77;69.15;100819.69;5075627;28;20028;-64
2021/06/05 03:33:04;;;;;;;12.82;5.13;;;;;;;13.78;69.69;100820.50;5075735;28;20051;-66
2021/06/05 03:35:30;;;;;;;15.30;5.78;;;;;;;13.79;69.83;100828.56;5074812;28;20039;-64
2021/06/05 03:37:56;;;;;;;6.40;4.72;;;;;;;13.77;69.31;100821.72;5075482;28;20044;-67
2021/06/05 03:40:25;;;;;;;10.68;6.05;;;;;;;13.77;69.13;100825.34;5075497;28;20032;-65
2021/06/05 03:42:51;;;;;;;17.55;5.72;;;;;;;13.79;69.74;100828.56;5074923;28;20050;-63
2021/06/05 03:45:16;;;;;;;12.35;5.25;;;;;;;13.82;69.55;100826.94;5075496;28;20016;-62
2021/06/05 03:47:45;;;;;;;5.43;4.93;;;;;;;13.84;70.00;100824.50;5075381;28;20447;-61
2021/06/05 03:50:11;;;;;;;9.38;4.90;;;;;;;13.87;70.57;100832.94;5075531;28;20054;-61
2021/06/05 03:52:36;;;;;;;6.47;4.97;;;;;;;13.91;70.48;100836.53;5075545;28;20343;-61
2021/06/05 03:55:03;;;;;;;10.77;5.32;;;;;;;13.97;69.73;100839.75;5075189;28;20024;-61
2021/06/05 03:57:28;;;;;;;8.23;4.72;;;;;;;14.03;69.71;100838.09;5074905;28;20080;-60
2021/06/05 03:59:56;;;;;;;9.38;5.10;;;;;;;14.09;69.78;100830.75;5075290;28;20460;-61
2021/06/05 04:02:23;;;;;;;10.18;5.53;;;;;;;14.18;70.39;100838.75;5075231;28;20055;-61
2021/06/05 04:04:48;;;;;;;13.20;5.63;;;;;;;14.25;70.93;100838.72;5075085;28;20047;-60
2021/06/05 04:07:14;;;;;;;6.57;4.80;;;;;;;14.33;70.71;100851.56;5075182;28;20029;-61
2021/06/05 04:09:40;;;;;;;10.57;5.35;;;;;;;14.52;69.40;100842.53;5075270;28;20031;-60
2021/06/05 04:12:07;;;;;;;10.38;5.43;;;;;;;14.69;68.57;100842.75;5074956;28;20012;-61
2021/06/05 04:14:33;;;;;;;14.48;6.18;;;;;;;14.77;68.19;100841.44;5075363;28;20439;-61
2021/06/05 04:16:59;;;;;;;8.43;6.03;;;;;;;14.86;68.41;100843.81;5075073;28;20059;-61
2021/06/05 04:19:24;;;;;;;15.75;6.60;;;;;;;14.93;67.75;100832.41;5075133;28;20032;-61
2021/06/05 04:21:50;;;;;;;13.80;5.85;;;;;;;15.01;68.04;100829.03;5074876;28;20419;-61
2021/06/05 04:24:16;;;;;;;12.02;6.07;;;;;;;15.11;66.92;100833.81;5075312;28;20029;-61
2021/06/05 04:26:41;;;;;;;7.90;5.20;;;;;;;15.24;66.45;100833.22;5074805;28;20434;-61
2021/06/05 04:29:07;;;;;;;8.10;6.15;;;;;;;15.33;66.72;100845.63;5074577;28;20028;-61
2021/06/05 04:31:32;;;;;;;8.15;5.85;;;;;;;15.45;65.33;100841.44;5074969;28;20060;-62
2021/06/05 04:33:57;;;;;;;8.50;5.65;;;;;;;15.51;64.99;100839.75;5075125;28;20481;-62
2021/06/05 04:36:23;;;;;;;6.22;5.32;;;;;;;15.58;65.45;100836.84;5074611;28;20031;-63
2021/06/05 04:38:49;;;;;;;9.80;5.32;;;;;;;15.66;64.98;100838.34;5074899;28;20400;-62
2021/06/05 04:41:17;;;;;;;9.95;5.55;;;;;;;15.75;64.63;100826.47;5074516;28;20095;-62
2021/06/05 04:43:43;;;;;;;7.32;5.60;;;;;;;15.84;64.24;100823.09;5075203;28;20107;-63
2021/06/05 04:46:12;;;;;;;8.10;5.00;;;;;;;15.92;64.12;100818.94;5074828;28;20055;-62
2021/06/05 04:48:37;;;;;;;7.60;4.85;;;;;;;16.01;64.07;100825.66;5077543;28;20024;-62
2021/06/05 04:51:04;;;;;;;11.70;5.30;;;;;;;16.12;63.51;100833.19;5077824;28;20079;-62
2021/06/05 04:53:29;;;;;;;5.78;5.13;;;;;;;16.21;63.37;100825.75;5064981;28;20107;-61
2021/06/05 04:55:55;;;;;;;10.73;5.43;;;;;;;16.32;63.10;100823.50;5078520;28;20059;-61
2021/06/05 04:58:21;;;;;;;10.00;5.63;;;;;;;16.44;62.56;100827.00;5078061;28;20032;-61
2021/06/05 05:00:50;;;;;;;7.15;5.45;;;;;;;16.56;63.80;100818.63;5078464;28;20021;-62
2021/06/05 05:03:19;;;;;;;14.27;5.43;;;;;;;16.69;62.76;100824.50;5078057;28;20016;-60
2021/06/05 05:05:44;;;;;;;14.70;5.18;;;;;;;16.80;62.37;100813.75;5078312;28;20020;-62
2021/06/05 05:08:13;;;;;;;9.32;5.07;;;;;;;16.91;61.05;100825.69;5078016;28;20316;-62
2021/06/05 05:10:44;;;;;;;6.90;4.35;;;;;;;17.01;60.91;100823.09;5078097;28;20035;-62
2021/06/05 05:13:11;;;;;;;10.93;4.70;;;;;;;17.10;61.03;100823.28;5076995;28;20024;-63
2021/06/05 05:15:37;;;;;;;6.50;4.40;;;;;;;17.23;61.29;100835.59;5078119;28;20267;-62
2021/06/05 05:18:02;;;;;;;11.15;4.60;;;;;;;17.32;61.51;100830.13;5078130;28;20028;-62
2021/06/05 05:20:31;;;;;;;7.35;4.45;;;;;;;17.44;62.10;100835.13;5077823;28;20415;-62
2021/06/05 05:22:57;;;;;;;4.75;3.78;;;;;;;17.54;61.73;100836.16;5077956;28;20024;-62
2021/06/05 05:25:22;;;;;;;9.20;4.63;;;;;;;17.63;61.40;100836.34;5060181;28;20047;-63
2021/06/05 05:27:48;;;;;;;4.75;4.00;;;;;;;17.71;61.59;100840.66;5075302;28;20032;-62
2021/06/05 05:30:18;;;;;;;6.90;4.60;;;;;;;17.83;63.79;100839.97;5068957;28;20107;-62
2021/06/05 05:32:44;;;;;;;8.00;5.03;;;;;;;17.99;63.03;100847.72;5077388;28;20025;-63
2021/06/05 05:35:10;;;;;;;11.20;4.95;;;;;;;18.06;61.20;100841.84;5077734;28;20027;-62
2021/06/05 05:37:36;;;;;;;10.70;4.28;;;;;;;18.20;62.30;100837.88;5077355;28;20130;-64
2021/06/05 05:40:04;;;;;;;13.70;4.35;;;;;;;18.33;61.31;100835.09;5077551;28;20055;-61
2021/06/05 05:42:30;;;;;;;8.10;4.35;;;;;;;18.47;61.05;100843.28;5077334;28;20021;-63
2021/06/05 05:44:55;;;;;;;10.57;4.88;;;;;;;18.60;59.95;100838.44;5076433;28;20082;-66
2021/06/05 05:47:20;;;;;;;7.88;4.10;;;;;;;18.75;59.12;100828.31;5077521;28;20028;-65
2021/06/05 05:49:46;;;;;;;7.03;3.95;;;;;;;18.88;59.18;100836.91;5069977;28;20056;-66
2021/06/05 05:52:11;;;;;;;9.32;4.28;;;;;;;18.99;58.03;100837.41;5077078;28;20017;-63
2021/06/05 05:54:36;;;;;;;8.77;4.15;;;;;;;19.12;57.10;100829.69;5077068;28;20028;-65
2021/06/05 05:57:02;;;;;;;5.80;3.35;;;;;;;19.24;56.97;100831.00;5077566;28;20020;-63
2021/06/05 05:59:28;;;;;;;8.18;3.67;;;;;;;19.38;58.21;100836.25;5076737;28;20359;-67
2021/06/05 06:01:53;;;;;;;7.32;3.75;;;;;;;19.51;57.73;100829.81;5076992;28;20091;-67
2021/06/05 06:04:19;;;;;;;6.30;4.40;;;;;;;19.64;56.68;100825.72;5077013;28;20032;-64
2021/06/05 06:06:44;;;;;;;9.05;3.70;;;;;;;19.77;55.54;100822.91;5077035;28;20020;-65
2021/06/05 06:09:10;;;;;;;9.93;4.95;;;;;;;19.88;53.78;100811.13;5076879;28;20422;-65
2021/06/05 06:11:35;;;;;;;6.25;3.53;;;;;;;19.97;53.41;100814.88;5076822;28;20367;-65
2021/06/05 06:14:01;;;;;;;5.97;3.60;;;;;;;20.05;53.88;100821.19;5045374;28;20313;-65
2021/06/05 06:16:27;;;;;;;8.60;3.47;;;;;;;20.06;54.32;100817.06;5050127;28;20032;-66
2021/06/05 06:18:52;;;;;;;6.85;3.45;;;;;;;20.20;56.14;100819.44;5063592;28;20044;-65
2021/06/05 06:21:21;;;;;;;5.63;3.47;;;;;;;20.31;55.81;100822.75;5072034;28;20040;-65
2021/06/05 06:23:47;;;;;;;4.07;3.00;;;;;;;20.42;55.20;100819.53;5068035;28;20040;-65
2021/06/05 06:26:23;;;;;;;6.45;3.58;;;;;;;20.54;54.93;100817.91;5049375;28;20316;-65
2021/06/05 06:28:49;;;;;;;4.70;3.22;;;;;;;20.63;54.17;100820.88;5040344;28;20036;-65
2021/06/05 06:31:17;;;;;;;7.20;3.30;;;;;;;20.77;54.29;100813.81;5051039;28;20458;-66
2021/06/05 06:33:43;;;;;;;6.45;3.33;;;;;;;20.91;54.82;100816.19;5072592;28;20031;-65
2021/06/05 06:36:09;;;;;;;6.95;3.15;;;;;;;21.06;52.94;100817.22;5070694;28;20032;-64
2021/06/05 06:38:41;;;;;;;4.38;2.92;;;;;;;21.15;53.39;100816.53;5072976;28;20339;-65
2021/06/05 06:41:11;;;;;;;5.63;3.00;;;;;;;21.27;52.71;100813.59;5070026;28;20039;-64
2021/06/05 06:43:37;;;;;;;5.93;2.53;;;;;;;21.42;50.59;100818.78;5073092;28;20020;-67
2021/06/05 06:46:24;;;;;;;4.47;3.08;;;;;;;21.52;50.96;100820.44;5064966;28;20025;-65
2021/06/05 06:48:52;;;;;;;6.22;2.72;;;;;;;21.66;51.00;100822.75;5046787;28;20056;-65
2021/06/05 06:51:18;;;;;;;6.55;2.75;;;;;;;21.78;50.03;100832.47;5045073;28;20029;-64
2021/06/05 06:53:44;;;;;;;3.70;2.80;;;;;;;21.85;48.21;100829.31;5039182;28;21002;-64
2021/06/05 06:56:10;;;;;;;8.05;2.58;;;;;;;21.95;47.39;100827.31;5042899;28;20104;-65
2021/06/05 06:58:36;;;;;;;6.70;2.70;;;;;;;22.03;47.11;100823.69;5074261;28;20032;-65
2021/06/05 07:01:03;;;;;;;5.53;2.85;;;;;;;22.14;46.45;100826.13;5074120;28;20031;-64
2021/06/05 07:03:29;;;;;;;7.28;2.35;;;;;;;22.16;45.90;100826.44;5073199;28;20024;-64
2021/06/05 07:05:54;;;;;;;6.45;3.13;;;;;;;22.27;45.78;100826.00;5043829;28;20433;-64
2021/06/05 07:08:21;;;;;;;7.45;2.50;;;;;;;22.37;45.87;100821.88;5045934;28;20078;-64
2021/06/05 07:10:51;;;;;;;7.40;2.28;;;;;;;22.42;45.43;100816.31;5070606;28;20032;-65
2021/06/05 07:13:17;;;;;;;8.68;2.20;;;;;;;22.50;46.06;100814.78;5051445;28;20028;-64
2021/06/05 07:15:42;;;;;;;10.90;2.70;;;;;;;22.68;44.65;100810.31;5071736;28;20169;-65
2021/06/05 07:18:09;;;;;;;5.10;2.53;;;;;;;22.76;45.45;100815.28;5046098;28;20025;-65
2021/06/05 07:20:35;;;;;;;4.88;2.10;;;;;;;22.77;44.77;100824.66;5068919;28;20131;-65
2021/06/05 07:23:00;;;;;;;6.10;2.40;;;;;;;22.86;45.42;100824.69;5061648;28;20116;-65
2021/06/05 07:25:27;;;;;;;5.53;2.40;;;;;;;22.93;45.07;100814.97;5069005;28;20104;-66
2021/06/05 07:27:53;;;;;;;6.05;2.20;;;;;;;23.03;45.68;100814.50;5050698;28;20462;-64
2021/06/05 07:30:19;;;;;;;8.00;2.42;;;;;;;23.14;44.34;100814.00;5071305;28;20047;-65
2021/06/05 07:32:44;;;;;;;5.45;2.10;;;;;;;23.21;43.88;100810.00;5064599;28;20350;-64
2021/06/05 07:35:10;;;;;;;8.52;2.63;;;;;;;23.21;42.86;100807.13;5072384;28;20013;-64
2021/06/05 07:37:35;;;;;;;6.60;2.13;;;;;;;23.29;42.90;100799.81;5068968;28;20041;-64
2021/06/05 07:40:06;;;;;;;4.47;2.00;;;;;;;23.38;44.28;100808.38;5044423;28;20049;-63
2021/06/05 07:42:32;;;;;;;2.60;2.15;;;;;;;23.42;42.36;100806.13;5041898;28;20484;-63
2021/06/05 07:44:58;;;;;;;5.22;2.45;;;;;;;23.52;43.83;100804.81;5048680;28;20325;-64
2021/06/05 07:47:23;;;;;;;6.13;2.47;;;;;;;23.59;43.30;100810.28;5037195;28;20032;-63
2021/06/05 07:49:48;;;;;;;9.68;2.47;;;;;;;23.62;42.25;100812.16;5047602;28;20113;-64
2021/06/05 07:52:14;;;;;;;5.20;2.13;;;;;;;23.65;43.57;100805.47;5046340;28;20021;-64
2021/06/05 07:54:39;;;;;;;4.97;2.30;;;;;;;23.72;43.46;100807.97;5058036;28;20351;-65
2021/06/05 07:57:05;;;;;;;6.97;2.60;;;;;;;23.77;43.31;100802.84;5051003;28;20021;-64
2021/06/05 07:59:30;;;;;;;6.50;2.25;;;;;;;23.81;43.12;100795.66;5063837;28;20013;-64
2021/06/05 08:01:56;;;;;;;8.98;2.85;;;;;;;23.93;42.77;100811.09;5062164;28;20032;-64
2021/06/05 08:04:22;;;;;;;5.30;2.17;;;;;;;23.97;42.80;100812.50;5041654;28;20029;-64
2021/06/05 08:06:49;;;;;;;6.30;2.35;;;;;;;24.07;42.01;100804.63;5053764;28;20336;-64
2021/06/05 08:09:15;;;;;;;3.45;1.98;;;;;;;24.18;41.29;100798.38;5049347;28;20486;-63
2021/06/05 08:11:41;;;;;;;4.55;1.85;;;;;;;24.34;40.94;100810.25;5048737;28;20033;-64
2021/06/05 08:14:06;;;;;;;3.55;2.20;;;;;;;24.52;41.04;100802.78;5064620;28;20050;-64
2021/06/05 08:16:36;;;;;;;3.08;2.15;;;;;;;24.68;39.27;100792.94;5060799;28;20033;-64
2021/06/05 08:19:07;;;;;;;1.77;1.65;;;;;;;24.64;38.21;100785.28;5065864;28;20095;-64
2021/06/05 08:21:33;;;;;;;4.65;1.90;;;;;;;24.69;37.17;100786.69;5062005;28;20083;-64
2021/06/05 08:23:58;;;;;;;5.18;2.05;;;;;;;24.75;37.17;100778.97;5070211;28;20439;-64
2021/06/05 08:26:24;;;;;;;4.20;2.05;;;;;;;24.89;37.37;100783.94;5064994;28;20107;-64
2021/06/05 08:28:49;;;;;;;8.73;2.28;;;;;;;24.90;35.75;100779.00;5068301;28;20012;-64
2021/06/05 08:31:18;;;;;;;3.72;2.05;;;;;;;24.93;37.01;100775.94;5078608;28;20054;-63
2021/06/05 08:33:43;;;;;;;4.43;2.40;;;;;;;25.03;36.90;100778.75;5077729;28;20161;-64
2021/06/05 08:36:12;;;;;;;4.90;2.13;;;;;;;25.08;37.75;100764.47;5078675;28;20095;-64
2021/06/05 08:38:38;;;;;;;7.88;2.45;;;;;;;25.17;37.59;100775.09;5078380;28;20033;-64
2021/06/05 08:41:18;;;;;;;12.38;2.22;;;;;;;25.12;35.89;100778.66;5078652;28;20035;-63
2021/06/05 08:44:13;;;;;;;5.28;1.90;;;;;;;25.19;37.56;100773.31;5078581;28;20036;-64
2021/06/05 08:46:44;;;;;;;3.50;1.75;;;;;;;25.24;37.31;100772.63;5078011;28;20070;-64
2021/06/05 08:49:22;;;;;;;3.85;2.00;;;;;;;25.33;38.94;100770.94;5078416;28;20016;-64
2021/06/05 08:52:07;;;;;;;4.43;2.20;;;;;;;25.34;37.03;100769.66;5078622;28;20028;-64
2021/06/05 08:54:44;;;;;;;5.38;1.60;;;;;;;25.28;34.88;100763.81;5078568;28;20610;-64
2021/06/05 08:57:12;;;;;;;4.63;1.90;;;;;;;25.36;38.33;100761.31;5078460;28;20031;-64
2021/06/05 08:59:42;;;;;;;2.47;1.98;;;;;;;25.41;37.23;100760.59;5078031;28;20020;-64
2021/06/05 09:02:08;;;;;;;13.13;5.95;;;;;;;25.47;36.27;100750.78;5077162;28;20315;-64
2021/06/05 09:04:33;;;;;;;4.63;2.53;;;;;;;25.49;35.79;100747.41;5078200;28;20028;-64
2021/06/05 09:07:03;;;;;;;6.03;1.83;;;;;;;25.36;35.13;100741.16;5076903;28;20108;-64
2021/06/05 09:09:32;;;;;;;2.58;1.80;;;;;;;25.38;36.57;100745.13;5078056;28;20036;-64
2021/06/05 09:11:59;;;;;;;4.93;1.83;;;;;;;25.39;36.29;100746.72;5078044;28;20021;-64
2021/06/05 09:14:25;;;;;;;6.20;2.13;;;;;;;25.43;34.75;100735.00;5077901;28;20078;-64
2021/06/05 09:16:53;;;;;;;4.45;2.10;;;;;;;25.50;35.95;100741.16;5078055;28;20024;-64
2021/06/05 09:19:27;;;;;;;5.10;1.90;;;;;;;25.53;34.79;100728.66;5077988;28;20102;-64
2021/06/05 09:22:12;;;;;;;6.28;2.25;;;;;;;25.54;34.49;100727.38;5077699;28;20073;-63
2021/06/05 09:24:44;;;;;;;6.85;2.45;;;;;;;25.55;34.05;100731.03;5077963;28;20073;-64
2021/06/05 09:27:24;;;;;;;14.50;2.47;;;;;;;25.48;35.15;100717.84;5077634;28;20039;-64
2021/06/05 09:29:54;;;;;;;3.47;1.92;;;;;;;25.45;35.26;100732.41;5076412;28;20024;-64
2021/06/05 09:32:35;;;;;;;5.38;2.25;;;;;;;25.54;36.26;100724.47;5077417;28;20042;-64
2021/06/05 09:35:14;;;;;;;10.55;2.75;;;;;;;25.63;35.70;100728.53;5077269;28;20048;-64
2021/06/05 09:37:52;;;;;;;5.50;2.55;;;;;;;25.69;34.70;100720.78;5077440;28;20067;-65
2021/06/05 09:40:27;;;;;;;5.70;2.20;;;;;;;25.76;34.93;100708.88;5077793;28;20024;-65
2021/06/05 09:42:58;;;;;;;4.60;2.10;;;;;;;25.76;34.23;100718.31;5077319;28;20013;-65
2021/06/05 09:45:23;;;;;;;7.28;2.20;;;;;;;25.76;34.94;100723.28;5077329;28;20078;-65
2021/06/05 09:47:49;;;;;;;10.40;2.47;;;;;;;25.82;37.03;100722.06;5077426;28;20029;-65
2021/06/05 09:50:20;;;;;;;6.43;2.33;;;;;;;26.02;38.15;100724.19;5077337;28;20035;-64
2021/06/05 09:52:45;;;;;;;8.10;2.37;;;;;;;26.10;35.57;100713.81;5077300;28;20108;-65
2021/06/05 09:55:14;;;;;;;7.40;2.65;;;;;;;26.23;34.92;100724.19;5077459;28;20115;-65
2021/06/05 09:57:42;;;;;;;6.22;2.38;;;;;;;26.30;36.10;100718.00;5077124;28;20032;-65
2021/06/05 10:00:15;;;;;;;9.60;2.53;;;;;;;26.41;35.93;100707.44;5076964;28;20024;-65
2021/06/05 10:02:44;;;;;;;6.75;2.50;;;;;;;26.54;37.39;100712.81;5076986;28;20031;-65
2021/06/05 10:05:32;;;;;;;5.93;2.55;;;;;;;26.57;34.25;100708.13;5077369;28;20020;-65
2021/06/05 10:08:16;;;;;;;9.00;2.67;;;;;;;26.52;33.95;100697.31;5076885;28;20024;-65
2021/06/05 10:10:45;;;;;;;4.88;2.25;;;;;;;26.46;34.93;100706.69;5077107;28;20056;-64
2021/06/05 10:13:30;;;;;;;7.13;2.30;;;;;;;26.51;33.67;100696.53;5076641;28;20021;-64
2021/06/05 10:15:55;;;;;;;8.48;2.40;;;;;;;26.50;33.36;100706.47;5077032;28;20036;-65
2021/06/05 10:18:26;;;;;;;9.13;2.47;;;;;;;26.53;34.65;100687.38;5076747;28;20030;-65
2021/06/05 10:20:57;;;;;;;5.85;2.25;;;;;;;26.56;33.93;100687.13;5076858;28;20035;-65
2021/06/05 10:23:34;;;;;;;;;;;;;;;26.57;33.34;100677.22;5077005;28;20028;-64
2021/06/05 10:26:15;;;;;;;5.85;2.83;;;;;;;26.58;36.28;100678.00;5075565;28;19908;-66
2021/06/05 10:28:45;;;;;;;8.93;2.00;;;;;;;26.66;34.46;100677.06;5076176;28;20112;-64
2021/06/05 10:31:16;;;;;;;6.13;2.55;;;;;;;26.70;34.00;100683.38;5075327;28;20103;-64
2021/06/05 10:33:47;;;;;;;6.13;2.90;;;;;;;26.65;33.35;100680.44;5076578;28;20315;-64
2021/06/05 10:36:18;;;;;;;4.43;2.03;;;;;;;26.71;33.83;100670.53;5076322;28;20469;-65
2021/06/05 10:38:48;;;;;;;6.45;2.42;;;;;;;26.71;33.86;100675.53;5076440;28;20048;-66
2021/06/05 10:41:18;;;;;;;5.13;2.40;;;;;;;26.84;33.74;100681.66;5076287;28;20044;-65
2021/06/05 10:43:44;;;;;;;7.30;2.20;;;;;;;26.89;34.06;100685.94;5075947;28;20078;-65
2021/06/05 10:46:28;;;;;;;5.20;2.33;;;;;;;26.85;33.61;100676.72;5075554;28;20032;-64
2021/06/05 10:49:07;;;;;;;3.42;2.15;;;;;;;26.78;33.71;100663.53;5076281;28;20056;-65
2021/06/05 10:51:35;;;;;;;6.07;2.53;;;;;;;26.71;33.28;100664.78;5075982;28;20100;-65
2021/06/05 10:54:04;;;;;;;7.72;2.17;;;;;;;26.70;33.96;100656.63;5076319;28;20132;-64
2021/06/05 10:56:50;;;;;;;2.33;2.10;;;;;;;26.60;32.83;100653.16;5075833;28;20024;-65
2021/06/05 10:59:40;;;;;;;5.07;2.60;;;;;;;26.60;34.48;100650.25;5075159;28;20420;-65
2021/06/05 11:02:07;;;;;;;9.80;2.38;;;;;;;26.61;33.99;100648.97;5076338;28;20025;-64
2021/06/05 11:04:32;;;;;;;7.30;2.50;;;;;;;26.67;34.17;100641.16;5075955;28;20427;-66
2021/06/05 11:07:03;;;;;;;7.13;2.43;;;;;;;26.74;32.49;100643.56;5075786;28;20035;-65
2021/06/05 11:09:32;;;;;;;5.43;2.38;;;;;;;26.81;32.31;100642.31;5074750;28;20394;-64
2021/06/05 11:12:04;;;;;;;4.05;2.22;;;;;;;26.80;32.37;100638.63;5075619;28;20078;-63
2021/06/05 11:14:35;;;;;;;4.75;2.20;;;;;;;26.79;34.60;100637.06;5074664;28;20036;-64
2021/06/05 11:17:03;;;;;;;9.15;2.45;;;;;;;26.88;34.41;100629.56;5075971;28;20082;-64
2021/06/05 11:19:43;;;;;;;2.58;2.20;;;;;;;27.04;34.59;100632.59;5076035;28;20375;-64
2021/06/05 11:22:11;;;;;;;2.97;2.40;;;;;;;27.09;32.68;100628.97;5076031;28;20063;-65
2021/06/05 11:24:38;;;;;;;5.72;2.28;;;;;;;27.15;32.34;100628.25;5075683;28;20028;-65
2021/06/05 11:27:10;;;;;;;2.83;2.22;;;;;;;27.10;31.63;100626.88;5075215;28;20021;-65
2021/06/05 11:29:35;;;;;;;3.70;2.05;;;;;;;27.00;33.86;100619.72;5075478;28;20036;-66
2021/06/05 11:32:19;;;;;;;3.80;2.20;;;;;;;27.05;33.50;100618.97;5074628;28;20370;-65